Weather observations for the past three days for
Grand Prairie, Grand Prairie Municipal Airport
Imperial (Metric)
Date Time (cdt) Wind (mph) Vis. (mi.) Weather Sky Cond. Temperature (ºF) Relative Humidity Wind Chill (°F) Heat Index (°F) Pressure Precipitation (in)
Air Dwpt 6 hour altimeter (in) sea level (mb) 1 hr 3 hr 6 hr
Max. Min.
05 22:55 N 12 G 16 10.00 Overcast OVC031 69.8 57.7 66% 29.79 0.0
05 22:35 N 9 10.00 Overcast OVC031 70 57.4 64% 29.79 0.0
05 22:15 N 10 10.00 Overcast OVC031 70.9 57.6 63% 29.79 0.0
05 21:55 N 9 10.00 Overcast OVC031 72.1 58.1 61% 29.78 0.0
05 21:35 N 10 G 16 10.00 Overcast OVC031 72.7 58.5 61% 29.76 0.0
05 21:15 N 12 10.00 Mostly Cloudy BKN033 BKN039 73 59.2 62% 29.75 0.0
05 20:55 N 8 10.00 Partly Cloudy SCT034 SCT046 74.3 59 59% 29.73 0.0
05 20:35 N 12 G 18 10.00 Partly Cloudy SCT038 SCT046 SCT055 75 59.9 59% 77 29.72 0.0
05 20:15 N 14 10.00 Mostly Cloudy BKN038 BKN055 77.5 60.4 56% 79 29.72 0.0
05 19:55 N 10 10.00 Overcast OVC040 78.8 61.7 56% 80 29.7 0.0
05 19:35 N 10 10.00 Overcast SCT034 BKN043 OVC050 80.8 61.3 52% 82 29.7 0.0
05 19:15 N 12 10.00 Overcast BKN036 OVC044 82.8 61.3 48% 83 29.69 0.0
05 18:55 N 7 10.00 Mostly Cloudy BKN037 BKN043 85.5 60.3 91.4 83.7 43% 85 29.68 0.0
05 18:35 S 7 10.00 Partly Cloudy SCT039 85.5 69.8 60% 90 29.67 0.0
05 18:15 S 12 G 16 10.00 Fair CLR 88.3 68.5 52% 92 29.66 0.0
05 17:55 S 9 G 17 10.00 Partly Cloudy SCT055 88.7 67.1 49% 92 29.65 0.0
05 17:35 S 8 10.00 Mostly Cloudy BKN055 88.7 67.6 50% 92 29.65 0.0
05 17:15 S 5 10.00 Fair CLR 89.8 64.9 44% 92 29.65 0.0
05 16:55 SW 7 10.00 Fair CLR 90.7 63.7 41% 92 29.65 0.0
05 16:35 SW 7 10.00 Fair CLR 90 64.6 43% 92 29.65 0.0
05 16:15 SW 8 10.00 Fair CLR 90.1 62.8 40% 91 29.66 0.0
05 15:55 SW 12 10.00 Fair CLR 90.3 64.9 43% 92 29.67 0.0
05 15:35 SW 14 10.00 Fair CLR 89.6 66 46% 92 29.67 0.0
05 15:15 S 10 10.00 Fair CLR 88.7 65.3 46% 91 29.68 0.0
05 14:55 SW 12 G 17 10.00 Fair CLR 88 65.8 48% 90 29.69 0.0
05 14:35 SW 14 G 17 10.00 Fair CLR 86.9 66.7 51% 90 29.69 0.0
05 14:15 S 12 G 21 10.00 Fair CLR 86 67.1 53% 89 29.69 0.0
05 13:55 SW 14 G 20 10.00 Fair CLR 85.5 67.1 54% 88 29.7 0.0
05 13:35 S 9 G 21 10.00 Fair CLR 84.9 66.9 55% 88 29.7 0.0
05 13:15 SW 17 G 22 10.00 Fair CLR 83.7 66.6 56% 86 29.7 0.0
05 12:55 SW 13 G 21 10.00 Fair CLR 83.5 66.6 83.5 70 57% 86 29.7 0.0
05 12:35 SW 13 G 17 10.00 Fair CLR 82.4 66.2 58% 85 29.71 0.0
05 12:15 SW 15 G 22 10.00 Fair CLR 81.9 66.4 60% 84 29.71 0.0
05 11:55 SW 17 G 23 10.00 Fair CLR 82.2 66.4 59% 85 29.71 0.0
05 11:35 SW 16 G 24 10.00 Partly Cloudy SCT024 80.8 66.7 62% 83 29.7 0.0
05 11:15 SW 14 G 24 10.00 Partly Cloudy SCT023 79.2 66.2 65% 81 29.7 0.0
05 10:55 S 18 G 24 10.00 Partly Cloudy SCT021 78.1 66.2 67% 80 29.7 0.0
05 10:35 SW 17 G 23 10.00 Partly Cloudy SCT021 77.2 65.8 68% 79 29.7 0.0
05 10:15 SW 17 G 23 10.00 Partly Cloudy SCT021 77 65.8 69% 79 29.7 0.0
05 09:55 SW 17 G 29 10.00 Partly Cloudy SCT021 75.6 65.5 71% 77 29.7 0.0
05 09:35 S 16 10.00 Partly Cloudy SCT021 74.8 65.5 73% 29.7 0.0
05 09:15 SW 15 G 22 10.00 Partly Cloudy SCT019 74.3 65.5 74% 29.7 0.0
05 08:55 S 13 G 23 10.00 Fair CLR 73 65.3 77% 29.7 0.0
05 08:35 SW 15 G 21 10.00 Fair CLR 72 65.1 79% 29.69 0.0
05 08:15 SW 16 G 23 10.00 Fair CLR 71.6 64.9 80% 29.7 0.0
05 07:55 S 10 G 20 10.00 Fair CLR 70.9 64.8 81% 29.69 0.0
05 07:35 S 10 G 18 10.00 Fair CLR 70.3 64.6 82% 29.68 0.0
05 07:15 S 13 G 20 10.00 Fair CLR 70.2 64.4 82% 29.67 0.0
05 06:55 S 12 10.00 Fair CLR 69.8 64.4 73.4 69.8 83% 29.68 0.0
05 06:35 S 13 G 18 10.00 Partly Cloudy SCT013 70 64.4 83% 29.67 0.0
05 06:15 S 9 G 16 10.00 Mostly Cloudy BKN013 70.2 64.4 82% 29.67 0.0
05 05:55 S 7 10.00 Mostly Cloudy BKN016 70.3 64.4 82% 29.67 0.0
05 05:35 S 9 G 18 10.00 Mostly Cloudy BKN016 70.7 64.4 81% 29.66 0.0
05 05:15 S 10 G 17 10.00 Mostly Cloudy BKN018 71.2 64.4 79% 29.67 0.0
05 04:55 S 10 G 17 10.00 Overcast OVC018 71.6 64.4 78% 29.67 0.0
05 04:35 S 12 10.00 Overcast OVC018 71.1 64.4 80% 29.67 0.0
05 04:15 S 10 G 16 10.00 Overcast OVC016 70.9 64.4 80% 29.68 0.0
05 03:55 S 12 G 23 10.00 Overcast OVC016 71.1 64.2 79% 29.68 0.0
05 03:35 S 12 G 17 10.00 Overcast OVC016 70.9 64 79% 29.68 0.0
05 03:15 S 12 G 21 10.00 Mostly Cloudy BKN016 71.1 64 79% 29.68 0.0
05 02:55 S 13 G 17 10.00 Partly Cloudy SCT018 71.6 64 77% 29.69 0.0
05 02:35 S 14 G 20 10.00 Fair CLR 71.8 64 77% 29.7 0.0
05 02:15 S 14 G 22 10.00 Fair CLR 72.1 63.9 75% 29.71 0.0
05 01:55 S 16 G 26 10.00 Fair CLR 72.5 63.7 74% 29.71 0.0
05 01:35 S 13 G 21 10.00 Fair CLR 72.9 63.5 73% 29.72 0.0
05 01:15 S 15 G 22 10.00 Fair CLR 73.2 63.1 71% 29.72 0.0
05 00:55 S 13 G 21 10.00 Fair CLR 73.4 62.8 78.4 73.4 70% 29.72 0.0
05 00:35 S 16 G 23 10.00 Fair CLR 74.3 62.6 67% 29.72 0.0
05 00:15 S 13 G 25 10.00 Fair CLR 74.5 62.2 66% 29.73 0.0
04 23:55 S 13 G 21 10.00 Fair CLR 74.8 62.1 65% 29.73 0.0
04 23:35 S 12 G 22 10.00 Fair CLR 75 62.1 64% 77 29.73 0.0
04 23:15 S 13 G 21 10.00 Fair CLR 75 62.1 64% 77 29.73 0.0
04 22:55 S 12 G 18 10.00 Fair CLR 75.2 62.1 64% 77 29.73 0.0
04 22:35 S 14 G 21 10.00 Fair CLR 75.4 62.1 63% 77 29.73 0.0
04 22:15 S 9 G 17 10.00 Fair CLR 75.4 61.9 63% 77 29.73 0.0
04 21:55 S 10 G 17 10.00 Fair CLR 75.4 61.9 63% 77 29.74 0.0
04 21:35 S 12 10.00 Fair CLR 75.4 61.7 63% 77 29.73 0.0
04 21:15 S 10 G 17 10.00 Fair CLR 75.6 61.7 62% 78 29.72 0.0
04 20:55 S 9 10.00 Fair CLR 75.6 61.3 61% 78 29.72 0.0
04 20:35 S 10 G 16 10.00 Fair CLR 76.1 61.3 60% 78 29.72 0.0
04 20:15 S 10 10.00 Fair CLR 76.3 61.3 60% 78 29.72 0.0
04 19:55 S 13 G 18 10.00 Fair CLR 77 61 58% 79 29.72 0.0
04 19:35 S 12 10.00 Fair CLR 77.4 60.8 57% 79 29.73 0.0
04 19:15 S 16 G 23 10.00 Fair CLR 78.1 60.8 55% 80 29.74 0.0
04 18:55 S 17 G 25 10.00 Fair CLR 78.4 60.6 81.5 77.2 54% 80 29.74 0.0
04 18:35 S 18 G 25 10.00 Fair CLR 78.8 60.4 53% 80 29.74 0.0
04 18:15 S 12 G 29 10.00 Fair CLR 78.8 59.9 52% 80 29.74 0.0
04 17:55 S 15 G 23 10.00 Fair CLR 79.5 59.9 51% 80 29.75 0.0
04 17:35 S 16 G 23 10.00 Partly Cloudy SCT042 79.7 60.4 52% 81 29.76 0.0
04 17:15 S 15 G 24 10.00 Partly Cloudy SCT044 79.9 59.9 51% 81 29.76 0.0
04 16:55 S 12 G 26 10.00 Partly Cloudy SCT042 80.8 60.3 50% 81 29.76 0.0
04 16:35 S 15 G 28 10.00 Partly Cloudy SCT042 80.6 60.1 50% 81 29.77 0.0
04 16:15 S 16 G 22 10.00 Partly Cloudy SCT042 81.3 60.4 49% 82 29.78 0.0
04 15:55 S 16 G 26 10.00 Partly Cloudy SCT042 80.6 60.1 50% 81 29.79 0.0
04 15:35 S 13 G 24 10.00 Partly Cloudy SCT040 80.2 59.9 50% 81 29.8 0.0
04 15:15 S 16 G 24 10.00 Partly Cloudy SCT040 79.9 59.4 50% 81 29.82 0.0
04 14:55 S 20 G 25 10.00 Partly Cloudy SCT040 79.2 59 50% 80 29.83 0.0
04 14:35 S 20 G 23 10.00 Fair CLR 79.2 58.5 49% 80 29.84 0.0
04 14:15 S 18 G 25 10.00 Partly Cloudy SCT040 78.8 58.5 50% 80 29.85 0.0
04 13:55 S 12 G 23 10.00 Partly Cloudy SCT040 78.6 58.1 49% 80 29.86 0.0
04 13:35 SW 14 G 22 10.00 Partly Cloudy SCT040 79 57.9 49% 80 29.87 0.0
04 13:15 S 15 G 24 10.00 Partly Cloudy SCT040 77.9 57.9 50% 79 29.87 0.0
04 12:55 S 12 G 21 10.00 Fair CLR 77.4 57.6 77.4 60.8 51% 79 29.88 0.0
04 12:35 S 12 G 24 10.00 Fair CLR 76.3 57 51% 78 29.89 0.0
04 12:15 S 14 G 28 10.00 Fair CLR 75.4 56.7 52% 78 29.9 0.0
04 11:55 S 18 G 23 10.00 Fair CLR 75 56.3 52% 78 29.91 0.0
04 11:35 S 15 G 26 10.00 Fair CLR 74.3 55.6 52% 29.92 0.0
04 11:15 S 16 G 29 10.00 Fair CLR 73.4 54.9 52% 29.92 0.0
04 10:55 S 16 G 23 10.00 Fair CLR 72.9 55.4 54% 29.92 0.0
04 10:35 S 20 G 25 10.00 Fair CLR 71.4 54.9 56% 29.93 0.0
04 10:15 S 16 G 25 10.00 Fair CLR 70.7 55.2 58% 29.93 0.0
04 09:55 S 20 G 25 10.00 Fair CLR 68.5 54.9 62% 29.94 0.0
04 09:35 S 18 G 25 10.00 Fair CLR 68 54.7 63% 29.95 0.0
04 09:15 S 13 G 24 10.00 Fair CLR 66.9 54 63% 29.95 0.0
04 08:55 S 12 G 21 10.00 Fair CLR 65.5 54 67% 29.95 0.0
04 08:35 S 13 G 20 10.00 Fair CLR 63.9 53.1 68% 29.95 0.0
04 08:15 S 10 G 22 10.00 Fair CLR 63.7 53.2 69% 29.95 0.0
04 07:55 S 10 G 17 10.00 Fair CLR 62.4 53.1 72% 29.95 0.0
04 07:35 S 9 10.00 Fair CLR 61.3 52.9 74% 29.94 0.0
04 07:15 S 10 10.00 Fair CLR 61 52.7 74% 29.94 0.0
04 06:55 S 8 10.00 Fair CLR 60.8 52.3 66.2 60.8 74% 29.94 0.0
04 06:35 S 12 G 16 10.00 Fair CLR 61 52.3 73% 29.93 0.0
04 06:15 S 10 G 18 10.00 Fair CLR 61.2 52 72% 29.93 0.0
04 05:55 S 9 G 16 10.00 Fair CLR 61.2 51.8 71% 29.93 0.0
04 05:35 S 10 10.00 Fair CLR 61.7 52 71% 29.94 0.0
04 05:15 S 12 G 16 10.00 Fair CLR 61.7 51.8 70% 29.94 0.0
04 04:55 S 8 10.00 Fair CLR 61.9 51.8 70% 29.95 0.0
04 04:40 S 9 10.00 Fair CLR 62.1 51.4 68% 29.95 0.0
04 04:15 S 9 10.00 Fair CLR 62.6 51.1 66% 29.95 0.0
04 03:55 S 10 G 16 10.00 Fair CLR 62.6 50.9 66% 29.96 0.0
04 03:35 S 7 10.00 Fair CLR 63 50.4 64% 29.96 0.0
04 03:15 S 10 10.00 Fair CLR 63.5 49.6 61% 29.96 0.0
04 02:55 S 10 G 16 10.00 Fair CLR 64.2 48.7 57% 29.97 0.0
04 02:35 S 9 10.00 Fair CLR 64.6 48 55% 29.97 0.0
04 02:15 S 9 10.00 Fair CLR 65.1 48.2 54% 29.98 0.0
04 01:55 S 7 10.00 Fair CLR 65.3 48.6 55% 29.98 0.0
04 01:15 S 9 10.00 Fair CLR 65.8 49.1 55% 29.99 0.0
04 00:55 S 7 10.00 Fair CLR 66.2 49.1 78.3 66.2 54% 30 0.0
04 00:35 S 6 10.00 Fair CLR 66.4 49.3 54% 30.01 0.0
04 00:15 S 6 10.00 Fair CLR 66.4 49.3 54% 30.01 0.0
03 23:55 S 5 10.00 Fair CLR 67.1 49.1 53% 30.02 0.0
03 23:35 S 5 10.00 Fair CLR 67.5 49.1 52% 30.02 0.0
03 23:15 S 5 10.00 Fair CLR 68 48.4 50% 30.03 0.0
03 22:55 S 7 10.00 Fair CLR 68.9 47.5 47% 30.02 0.0
03 22:35 S 7 10.00 Fair CLR 69.4 46.9 45% 30.02 0.0
03 22:15 S 7 10.00 Fair CLR 69.8 47.1 45% 30.02 0.0
03 21:55 S 6 10.00 Fair CLR 70 47.3 45% 30.02 0.0
03 21:35 S 8 10.00 Fair CLR 70.7 47.3 43% 30.01 0.0
03 21:15 S 7 10.00 Fair CLR 71.2 46.9 42% 30.02 0.0
03 20:55 S 8 10.00 Fair CLR 72.5 46.4 39% 30.01 0.0
03 20:35 S 8 10.00 Fair CLR 73.2 45.1 37% 30 0.0
03 20:15 S 7 10.00 Fair CLR 74.1 43.7 34% 30 0.0
03 19:55 S 8 10.00 Fair CLR 75.6 42.6 31% 77 30 0.0
03 19:35 S 8 10.00 Fair CLR 76.5 43 30% 77 30 0.0
03 19:15 S 10 G 16 10.00 Fair CLR 77.9 42.3 28% 78 30.01 0.0
03 18:55 S 8 10.00 Fair CLR 78.3 42.8 81.7 78.3 28% 78 30.01 0.0
03 18:35 S 12 G 17 10.00 Fair CLR 79 42.8 28% 78 30.02 0.0
03 18:15 S 10 10.00 Fair CLR 79.5 43.9 28% 79 30.02 0.0
03 17:55 S 12 G 16 10.00 Partly Cloudy SCT080 79.9 43.3 27% 79 30.02 0.0
03 17:35 S 9 10.00 Fair CLR 80.6 43.7 27% 79 30.02 0.0
03 17:15 S 9 G 17 10.00 Fair CLR 80.2 43 27% 79 30.03 0.0
03 16:55 S 8 10.00 Fair CLR 80.4 43 27% 79 30.04 0.0
03 16:35 SW 13 G 17 10.00 Partly Cloudy SCT080 80.2 42.8 27% 79 30.04 0.0
03 16:15 SW 9 G 22 10.00 Partly Cloudy SCT080 81.5 45.1 28% 80 30.05 0.0
03 15:55 SW 12 G 17 10.00 Fair CLR 81.5 43.5 26% 80 30.06 0.0
03 15:35 Calm 10.00 Fair CLR 80.8 42.4 26% 79 30.07 0.0
03 15:15 SW 9 10.00 Fair CLR 81.3 41.2 24% 80 30.08 0.0
03 14:55 S 13 G 17 10.00 Fair CLR 81.3 44.2 27% 80 30.09 0.0
03 14:35 SW 13 G 17 10.00 Fair CLR 80.6 42.3 26% 79 30.1 0.0
03 14:15 S 10 G 17 10.00 Partly Cloudy SCT080 80.8 42.8 26% 79 30.11 0.0
03 13:55 S 8 G 17 10.00 Partly Cloudy SCT080 79.9 45 29% 79 30.12 0.0
03 13:35 S 7 10.00 Partly Cloudy SCT070 SCT080 79.7 43.9 28% 79 30.13 0.0
03 13:15 SW 8 10.00 Fair CLR 79.7 45.1 30% 79 30.14 0.0
03 12:55 SW 12 G 17 10.00 Fair CLR 78.8 44.6 79 54.5 30% 79 30.15 0.0
03 12:35 SW 8 10.00 Fair CLR 78.6 46.6 32% 79 30.16 0.0
03 12:15 SW 8 10.00 Fair CLR 77.4 46.4 34% 78 30.17 0.0
03 11:55 SW 9 10.00 Fair CLR 76.6 46.4 34% 78 30.18 0.0
03 11:35 SW 13 10.00 Fair CLR 76.3 46.2 35% 78 30.19 0.0
03 11:15 SW 9 10.00 Fair CLR 75.4 46.6 36% 77 30.19 0.0
03 10:55 SW 10 10.00 Fair CLR 74.1 45.7 36% 30.19 0.0
03 10:35 SW 9 10.00 Fair CLR 73.4 46 38% 30.19 0.0
03 10:15 SW 9 10.00 Fair CLR 72.3 46.6 40% 30.19 0.0
03 09:55 SW 10 10.00 Fair CLR 71.1 48.2 44% 30.19 0.0
03 09:35 SW 6 10.00 Fair CLR 68.7 48.6 49% 30.19 0.0
03 09:15 SW 6 10.00 Fair CLR 66 48.9 54% 30.19 0.0
03 08:55 SW 3 10.00 Fair CLR 63.3 49.5 61% 30.19 0.0
03 08:35 S 6 10.00 Fair CLR 61 49.1 65% 30.18 0.0
03 08:15 SW 6 10.00 Fair CLR 59.2 49.1 69% 30.18 0.0
03 07:55 Calm 10.00 Fair CLR 57.4 48.6 73% 30.17 0.0
03 07:35 Calm 10.00 Fair CLR 56.3 48.2 74% 30.17 0.0
03 07:15 Calm 10.00 Fair CLR 55.4 48.2 77% 30.16 0.0
03 06:55 Calm 10.00 Fair CLR 54.5 47.5 61.9 54 77% 30.16 0.0
03 06:35 Calm 10.00 Fair CLR 54 47.5 79% 30.16 0.0
03 06:15 Calm 10.00 Fair CLR 54.3 47.5 78% 30.15 0.0
03 05:55 Calm 10.00 Fair CLR 54.5 47.5 77% 30.15 0.0
03 05:35 Calm 10.00 Fair CLR 54.9 47.7 77% 30.15 0.0
03 05:15 Calm 10.00 Fair CLR 55.4 47.7 75% 30.15 0.0
03 04:55 S 3 10.00 Fair CLR 55.4 47.7 75% 30.15 0.0
03 04:35 S 3 10.00 Fair CLR 55.9 47.7 74% 30.15 0.0
03 04:15 SW 3 10.00 Fair CLR 56.7 47.7 72% 30.14 0.0
03 03:55 SW 3 10.00 Fair CLR 56.8 47.5 71% 30.14 0.0
03 03:35 Calm 10.00 Fair CLR 57.2 47.5 70% 30.14 0.0
03 03:15 S 3 10.00 Fair CLR 57.6 47.3 69% 30.14 0.0
03 02:55 SW 3 10.00 Fair CLR 58.3 47.3 67% 30.14 0.0
03 02:35 S 3 10.00 Fair CLR 59 47.1 65% 30.15 0.0
03 02:15 S 3 10.00 Fair CLR 59.7 46.9 63% 30.15 0.0
03 01:55 S 5 10.00 Fair CLR 60.3 46.9 62% 30.15 0.0
03 01:35 S 5 10.00 Fair CLR 60.3 46.8 61% 30.15 0.0
03 01:15 S 3 10.00 Fair CLR 61.5 46.8 59% 30.15 0.0
03 00:55 S 5 10.00 Fair CLR 61.9 46.8 76.1 61.9 58% 30.15 0.0
03 00:35 S 3 10.00 Fair CLR 62.2 46.9 57% 30.15 0.0
03 00:15 SW 5 10.00 Fair CLR 62.8 46.8 56% 30.14 0.0
02 23:55 S 3 10.00 Fair CLR 63 47.5 57% 30.14 0.0
02 23:35 S 3 10.00 Fair CLR 63.1 47.3 56% 30.14 0.0
Date Time (cdt) Wind (mph) Vis. (mi.) Weather Sky Cond. Air Dwpt Max. Min. Relative Humidity Wind Chill (°F) Heat Index (°F) altimeter (in) sea level (mb) 1 hr 3 hr 6 hr
6 hour
Temperature (ºF) Pressure Precipitation (in)